Terminal Aerodrome Forecast
Issued by NWS

Home | Current Version | Previous Version | Text Only | Print | Product List | Glossary On
Versions: 1 2 3 4 5 6 7 8 9 10 11 12 13 14 15 16 17 18 19 20 21 22
000
FTUS44 KTSA 201500 AAB
TAFFYV
TAF AMD
KFYV 201557Z 2016/2112 VRB03KT P6SM OVC012
     FM202200 19004KT P6SM BKN025
     FM210900 17003KT 4SM BR OVC015=

USA.gov is the U.S. government's official web portal to all federal, state and local government web resources and services.